Kahului, HI

7:38 PM HST on June 01, 2015 (GMT -1000)
Lanai City | | Change Station
CLOSE
Current Station
Airport
Location: Lanai City,
Elevation: 1309 ft
Nearby Weather Stations
Active Advisory: High Surf Advisory Active Notice: Record Report

Elev 1309 ft 20.79 °N, 156.95 °W | Updated 40 minutes ago

Clear
Clear
70 °F
Feels Like 70 °F
N
21
Wind Variable Wind from NE
Gusts 24 mph

Today
High -- | Low -- °F
--% Chance of Precip.
Yesterday
High -- | Low -- °F
Precip. -- in
5:44 AM 7:03 PM
Full, 100% visible
Pressure 30.05 in
Visibility 10.0 miles
Clouds Clear
Dew Point 65 °F
Humidity 84%
Rainfall 0.01 in
Snow Depth Not available.
UV 0 out of 12
Pollen Not available.
Air Quality Not available.
Flu Activity Local Activity
METAR PHNY 020458Z AUTO 04018G21KT 10SM CLR 21/18 A3005 RMK AO2 SLPNO T02110183

More Conditions Fewer Conditions

Pressure 30.05 in
Visibility 10.0 miles
Clouds Clear
Dew Point 65 °F
Humidity 84%
Rainfall 0.01 in
Snow Depth Not available.
UV 0 out of 12
Pollen Not available.
Air Quality Not available.
Flu Activity Local Activity
METAR PHNY 020458Z AUTO 04018G21KT 10SM CLR 21/18 A3005 RMK AO2 SLPNO T02110183

More Conditions Fewer Conditions

10-Day Weather Forecast

Almanac

Astronomy

Jun. 01, 2015 Rise Set
Actual Time
Civil Twilight
Nautical Twilight
Astronomical Twilight
Moon
Length of Visible Light
Length of Day
Tomorrow will be .
, % of the Moon is Illuminated

Today's Extremes

State Highs State Lows

Community

WunderPhotos

Upload Photos

1,825,920 photos uploaded!

WunderBlogs® & News

Nearby

Air Quality

  Air Quality AQ Index Pollutant
Not available.

Snow Depth

Station Depth Elevation

Earthquake Activity

City Distance Mag. Time & Date
Minimum magnitude displayed is 2.5.

Coastal Water Temperatures

Place Temperature

Stations

Nearby Weather Stations

Station Location Temp. Windchill Dew Point Humidity Wind Precip. Elev Updated Type
                   
High Surf Advisory
Statement as of 3:11 PM HST on June 01, 2015

... High surf advisory remains in effect until 6 PM HST Tuesday...

A high surf advisory remains in effect until 6 PM HST Tuesday.

* Surf... along south facing shores... 8 to 12 feet tonight...
decreasing to 6 to 10 feet on Tuesday.

* Timing... slowly diminishing through Tuesday.

* Impacts... moderate... expect strong breaking waves... shore
break... and strong longshore and rip currents making swimming
difficult and dangerous.

Precautionary/preparedness actions...

Know your limits and seek ocean recreation areas best suited for
your abilities. Beachgoers... swimmers... and surfers should heed
all advice given by ocean safety officials and exercise caution.
Boaters should expect surfers and body boarders utilizing Harbor
channels to access surfing areas.



Foster